TAF Text Data
IDs:
Format:
Raw Decoded Include METAR

Data at: 0349 UTC 10 Dec 2018

Region: TOP
KATL 100337Z 1004/1106 02008KT P6SM -DZ SCT007 OVC015
  FM100500 34006KT 3SM -RA BR SCT007 OVC012
  FM100700 33005KT 2SM -RA BR OVC006
  FM101300 33005KT 5SM -RA BR OVC007
  FM102000 35004KT P6SM -SHRA OVC010
  FM110000 32004KT P6SM OVC015


KBOS 092325Z 1000/1106 23010KT P6SM FEW250
  FM100400 26008KT P6SM FEW250
  FM100700 29007KT P6SM FEW250
  FM101000 32008KT P6SM SKC
  FM101500 34010KT P6SM SKC
  FM110200 24005KT P6SM SKC


KBWI 092323Z 1000/1106 02005KT P6SM BKN120
  FM100600 01006KT P6SM SCT200


KCLE 100204Z 1002/1106 36004KT P6SM SCT018
  TEMPO 1002/1004 BKN018
  FM100400 33004KT P6SM OVC018
  FM101400 28004KT P6SM OVC020
  FM101800 25006KT P6SM OVC025
  FM102000 24006KT P6SM BKN250


KCLT 100156Z 1002/1106 02009KT 3SM -DZPL BR OVC007
  FM100700 02008G15KT 2SM -SNPL BR OVC005
  FM101500 02008G17KT 3SM BR BKN008 OVC011
  PROB30 1015/1018 2SM -SN BR OVC007
  FM101800 02007KT 3SM BR VCSH OVC014
  FM102200 35003KT 5SM BR OVC020
  FM110000 35003KT P6SM OVC045


KCVG 092328Z 1000/1106 03006KT P6SM BKN250
  FM100400 36004KT P6SM SCT250
  FM101400 33007KT P6SM SKC
  FM110000 29003KT P6SM SKC


KDCA 092323Z 1000/1106 02007KT P6SM OVC045
  FM100600 35007KT P6SM SCT200


KDEN 100241Z 1003/1106 20010KT P6SM SKC
  FM101900 13005KT P6SM SCT220
  FM102100 10008KT P6SM BKN220
  FM110200 18008KT P6SM BKN220


KDFW 100300Z 1003/1106 31007KT P6SM SKC
  FM102200 19004KT P6SM SKC


KDTW 100305Z 1003/1106 34004KT P6SM SKC
  FM101100 28004KT P6SM OVC015
  FM101900 24004KT P6SM BKN025
  FM110000 22005KT P6SM SKC


KEWR 100223Z 1002/1106 32005KT P6SM BKN250
  FM100800 34007KT P6SM SCT250
  FM101300 36010KT P6SM SCT250
  FM101800 35008KT P6SM SKC
  FM110000 35004KT P6SM SKC


KFLL 100305Z 1003/1106 25010KT P6SM SCT015 BKN100
  FM101300 30009KT P6SM SCT020 BKN040
  FM101800 29012G22KT P6SM SCT040 SCT250
  FM102200 29009KT P6SM SCT040


KIAD 092323Z 1000/1106 01006KT P6SM OVC035
  FM100600 35007KT P6SM SCT200


KIAH 100303Z 1003/1106 32006KT P6SM OVC028
  FM100400 33006KT P6SM BKN040
  FM100500 33005KT P6SM SKC


KJFK 100223Z 1002/1106 31005KT P6SM BKN250
  FM100800 35007KT P6SM SCT250
  FM101300 36011KT P6SM SCT250
  FM101800 35009KT P6SM SKC
  FM110000 35005KT P6SM SKC


KLAS 100245Z 1003/1106 21005KT P6SM BKN200
  FM101500 VRB04KT P6SM BKN200
  FM102100 11006KT P6SM BKN200


KLAX 100308Z 1003/1106 VRB03KT P6SM BKN250
  FM100900 06005KT P6SM BKN250
  FM102100 26010KT P6SM SCT250
  FM110400 VRB03KT P6SM SCT250


KLGA 100223Z 1002/1106 32005KT P6SM BKN250
  FM100800 34008KT P6SM SCT250
  FM101300 36011KT P6SM SCT250
  FM101800 35009KT P6SM SKC
  FM110000 35005KT P6SM SKC


KMCO 100258Z 1003/1106 27007KT P6SM SCT015 BKN025
  TEMPO 1008/1012 FEW008 BKN015
  FM101500 29012KT P6SM SCT025 BKN035
  FM110000 31007KT P6SM FEW025


KMDW 100319Z 1003/1106 30003KT 6SM BR FEW005 SCT010
  FM100600 29003KT 4SM BR FEW003 SCT006
  FM101400 26005KT P6SM SCT015
  FM101800 23010KT P6SM FEW020


KMEM 100300Z 1003/1106 34008KT P6SM BKN050
  FM100400 36006KT P6SM SCT050
  FM101500 35007KT P6SM SCT035 SCT200
  FM110000 00000KT P6SM SKC


KMIA 100305Z 1003/1106 26007KT P6SM SCT020 SCT090 BKN200
  FM101300 29010KT P6SM SCT020 BKN040
  FM102200 29007KT P6SM SCT040


KMSP 100251Z 1003/1106 23004KT P6SM SKC
  FM101000 22005KT 3SM BR SCT010
  FM101500 22008KT P6SM FEW250


KORD 100319Z 1003/1106 29003KT 4SM BR FEW003 SCT006
  FM101400 26005KT P6SM SCT015
  FM101800 23010KT P6SM FEW020


KPDX 100258Z 1003/1024 14008KT 6SM -RA BR BKN015 OVC025
  FM100800 16006KT P6SM VCSH SCT008 BKN015 OVC025
  FM102000 18005KT P6SM SCT020 BKN060


KPHL 092320Z 1000/1106 35005KT P6SM FEW035 BKN150
  FM100900 36005KT P6SM SCT200
  FM110400 VRB02KT P6SM FEW250


KPHX 100207Z 1002/1106 25005KT P6SM BKN250
  FM100500 09004KT P6SM BKN200
  TEMPO 1018/1022 09008G15KT BKN180


KPIT 100240Z 1003/1106 36004KT P6SM SKC
  FM101500 33003KT P6SM SCT025


KSAN 100310Z 1003/1106 VRB04KT P6SM BKN200
  FM102100 30009KT P6SM BKN200
  FM110000 VRB04KT P6SM BKN200


KSEA 100308Z 1003/1106 15008KT 6SM -RA BR SCT012 OVC020
  FM100500 17010KT P6SM VCSH SCT012 BKN020 OVC040
  FM102000 19008KT P6SM SCT020 BKN040 BKN120


KSFO 100301Z 1003/1106 07006KT P6SM FEW009 BKN120
  FM100900 VRB03KT P6SM VCSH FEW012 OVC050
  FM101400 04006KT P6SM VCSH FEW010 OVC040
  TEMPO 1014/1018 -SHRA BKN025
  FM102000 32009KT P6SM VCSH SCT025 BKN040 OVC150
  FM110400 29004KT P6SM SCT040 BKN150


KSLC 100259Z 1003/1106 32006KT 6SM BR BKN015
  FM100500 15005KT 3SM BR SCT010 BKN015
  FM100900 15005KT 2SM BR BCFG OVC009
  FM101900 32006KT 4SM BR OVC020


KSTL 100256Z 1003/1106 VRB04KT P6SM SKC

KTPA 100302Z 1003/1106 28012G20KT P6SM SCT025 BKN050
  FM100600 30012G18KT P6SM SCT015 BKN025
  FM101800 31011G17KT P6SM SCT025 BKN040
  FM102300 32008KT P6SM SCT025 BKN040